sensor_id;sensor_type;location;lat;lon;timestamp;P1;durP1;ratioP1;P2;durP2;ratioP2
11988;SDS011;6054;50.966;7.094;2022-12-29T00:01:26;0.50;;;0.50;;
11988;SDS011;6054;50.966;7.094;2022-12-29T00:03:53;1.20;;;0.50;;
11988;SDS011;6054;50.966;7.094;2022-12-29T00:06:19;0.60;;;0.55;;
11988;SDS011;6054;50.966;7.094;2022-12-29T00:08:46;0.40;;;0.40;;
11988;SDS011;6054;50.966;7.094;2022-12-29T00:11:14;3.25;;;0.50;;
11988;SDS011;6054;50.966;7.094;2022-12-29T00:13:42;0.90;;;0.40;;
11988;SDS011;6054;50.966;7.094;2022-12-29T00:16:28;0.73;;;0.45;;
11988;SDS011;6054;50.966;7.094;2022-12-29T00:18:56;0.45;;;0.40;;
11988;SDS011;6054;50.966;7.094;2022-12-29T00:21:23;0.38;;;0.32;;
11988;SDS011;6054;50.966;7.094;2022-12-29T00:24:09;0.73;;;0.40;;
11988;SDS011;6054;50.966;7.094;2022-12-29T00:26:56;0.35;;;0.35;;
11988;SDS011;6054;50.966;7.094;2022-12-29T00:29:51;0.52;;;0.40;;
11988;SDS011;6054;50.966;7.094;2022-12-29T00:32:36;0.40;;;0.40;;
11988;SDS011;6054;50.966;7.094;2022-12-29T00:35:22;0.63;;;0.40;;
11988;SDS011;6054;50.966;7.094;2022-12-29T00:37:52;0.30;;;0.30;;
11988;SDS011;6054;50.966;7.094;2022-12-29T00:40:36;2.85;;;0.52;;
11988;SDS011;6054;50.966;7.094;2022-12-29T00:43:21;0.30;;;0.30;;
11988;SDS011;6054;50.966;7.094;2022-12-29T00:46:05;0.32;;;0.32;;
11988;SDS011;6054;50.966;7.094;2022-12-29T00:48:33;2.10;;;0.30;;
11988;SDS011;6054;50.966;7.094;2022-12-29T00:51:17;0.22;;;0.22;;
11988;SDS011;6054;50.966;7.094;2022-12-29T00:53:44;1.08;;;0.40;;
11988;SDS011;6054;50.966;7.094;2022-12-29T00:56:11;0.38;;;0.32;;
11988;SDS011;6054;50.966;7.094;2022-12-29T00:58:37;0.20;;;0.20;;
11988;SDS011;6054;50.966;7.094;2022-12-29T01:01:05;1.05;;;0.30;;
11988;SDS011;6054;50.966;7.094;2022-12-29T01:03:35;0.30;;;0.20;;
11988;SDS011;6054;50.966;7.094;2022-12-29T01:06:04;1.33;;;0.28;;
11988;SDS011;6054;50.966;7.094;2022-12-29T01:08:31;0.17;;;0.17;;
11988;SDS011;6054;50.966;7.094;2022-12-29T01:10:59;0.25;;;0.25;;
11988;SDS011;6054;50.966;7.094;2022-12-29T01:13:25;0.68;;;0.17;;
11988;SDS011;6054;50.966;7.094;2022-12-29T01:15:52;0.20;;;0.10;;
11988;SDS011;6054;50.966;7.094;2022-12-29T01:18:19;0.28;;;0.10;;
11988;SDS011;6054;50.966;7.094;2022-12-29T01:20:48;0.20;;;0.20;;
11988;SDS011;6054;50.966;7.094;2022-12-29T01:23:15;0.47;;;0.28;;
11988;SDS011;6054;50.966;7.094;2022-12-29T01:25:42;0.10;;;0.10;;
11988;SDS011;6054;50.966;7.094;2022-12-29T01:28:09;0.73;;;0.35;;
11988;SDS011;6054;50.966;7.094;2022-12-29T01:30:35;0.10;;;0.10;;
11988;SDS011;6054;50.966;7.094;2022-12-29T01:33:02;0.20;;;0.20;;
11988;SDS011;6054;50.966;7.094;2022-12-29T01:35:29;0.05;;;0.05;;
11988;SDS011;6054;50.966;7.094;2022-12-29T01:37:57;0.38;;;0.13;;
11988;SDS011;6054;50.966;7.094;2022-12-29T01:40:24;0.20;;;0.13;;
11988;SDS011;6054;50.966;7.094;2022-12-29T01:42:51;0.08;;;0.08;;
11988;SDS011;6054;50.966;7.094;2022-12-29T01:45:17;0.20;;;0.20;;
11988;SDS011;6054;50.966;7.094;2022-12-29T01:47:46;0.20;;;0.20;;
11988;SDS011;6054;50.966;7.094;2022-12-29T01:50:16;0.20;;;0.20;;
11988;SDS011;6054;50.966;7.094;2022-12-29T01:52:47;0.40;;;0.25;;
11988;SDS011;6054;50.966;7.094;2022-12-29T01:55:21;0.10;;;0.10;;
11988;SDS011;6054;50.966;7.094;2022-12-29T01:57:49;0.10;;;0.10;;
11988;SDS011;6054;50.966;7.094;2022-12-29T02:00:19;0.55;;;0.30;;
11988;SDS011;6054;50.966;7.094;2022-12-29T02:02:46;0.20;;;0.20;;
11988;SDS011;6054;50.966;7.094;2022-12-29T02:05:17;1.98;;;0.38;;
11988;SDS011;6054;50.966;7.094;2022-12-29T02:07:49;0.25;;;0.20;;
11988;SDS011;6054;50.966;7.094;2022-12-29T02:10:17;0.38;;;0.30;;
11988;SDS011;6054;50.966;7.094;2022-12-29T02:12:47;0.40;;;0.40;;
11988;SDS011;6054;50.966;7.094;2022-12-29T02:15:14;0.82;;;0.30;;
11988;SDS011;6054;50.966;7.094;2022-12-29T02:17:47;0.40;;;0.40;;
11988;SDS011;6054;50.966;7.094;2022-12-29T02:23:40;0.63;;;0.45;;
11988;SDS011;6054;50.966;7.094;2022-12-29T02:26:35;0.43;;;0.30;;
11988;SDS011;6054;50.966;7.094;2022-12-29T02:29:29;0.50;;;0.32;;
11988;SDS011;6054;50.966;7.094;2022-12-29T02:32:15;0.50;;;0.50;;
11988;SDS011;6054;50.966;7.094;2022-12-29T02:34:56;0.30;;;0.30;;
11988;SDS011;6054;50.966;7.094;2022-12-29T02:37:32;2.60;;;0.57;;
11988;SDS011;6054;50.966;7.094;2022-12-29T02:40:08;2.03;;;0.52;;
11988;SDS011;6054;50.966;7.094;2022-12-29T02:42:45;0.32;;;0.32;;
11988;SDS011;6054;50.966;7.094;2022-12-29T02:45:17;0.40;;;0.40;;
11988;SDS011;6054;50.966;7.094;2022-12-29T02:47:51;3.30;;;0.50;;
11988;SDS011;6054;50.966;7.094;2022-12-29T02:50:25;2.20;;;0.47;;
11988;SDS011;6054;50.966;7.094;2022-12-29T02:52:58;0.63;;;0.30;;
11988;SDS011;6054;50.966;7.094;2022-12-29T02:55:27;0.88;;;0.43;;
11988;SDS011;6054;50.966;7.094;2022-12-29T03:00:48;1.48;;;0.50;;
11988;SDS011;6054;50.966;7.094;2022-12-29T03:03:30;0.35;;;0.35;;
11988;SDS011;6054;50.966;7.094;2022-12-29T03:06:11;0.77;;;0.45;;
11988;SDS011;6054;50.966;7.094;2022-12-29T03:08:53;0.50;;;0.45;;
11988;SDS011;6054;50.966;7.094;2022-12-29T03:11:27;1.40;;;0.40;;
11988;SDS011;6054;50.966;7.094;2022-12-29T03:14:17;0.60;;;0.32;;
11988;SDS011;6054;50.966;7.094;2022-12-29T03:17:11;0.25;;;0.20;;
11988;SDS011;6054;50.966;7.094;2022-12-29T03:19:47;0.52;;;0.50;;
11988;SDS011;6054;50.966;7.094;2022-12-29T03:22:19;1.90;;;0.40;;
11988;SDS011;6054;50.966;7.094;2022-12-29T03:24:57;0.30;;;0.30;;
11988;SDS011;6054;50.966;7.094;2022-12-29T03:27:27;0.47;;;0.30;;
11988;SDS011;6054;50.966;7.094;2022-12-29T03:29:57;0.43;;;0.20;;
11988;SDS011;6054;50.966;7.094;2022-12-29T03:32:28;0.55;;;0.40;;
11988;SDS011;6054;50.966;7.094;2022-12-29T03:34:59;0.73;;;0.30;;
11988;SDS011;6054;50.966;7.094;2022-12-29T03:37:29;0.20;;;0.20;;
11988;SDS011;6054;50.966;7.094;2022-12-29T03:40:15;1.27;;;0.43;;
11988;SDS011;6054;50.966;7.094;2022-12-29T03:42:42;0.65;;;0.28;;
11988;SDS011;6054;50.966;7.094;2022-12-29T03:45:10;0.40;;;0.40;;
11988;SDS011;6054;50.966;7.094;2022-12-29T03:47:37;0.90;;;0.30;;
11988;SDS011;6054;50.966;7.094;2022-12-29T03:50:05;0.45;;;0.30;;
11988;SDS011;6054;50.966;7.094;2022-12-29T03:52:33;0.20;;;0.20;;
11988;SDS011;6054;50.966;7.094;2022-12-29T03:55:00;1.83;;;0.20;;
11988;SDS011;6054;50.966;7.094;2022-12-29T03:57:27;0.35;;;0.30;;
11988;SDS011;6054;50.966;7.094;2022-12-29T03:59:53;1.65;;;0.40;;
11988;SDS011;6054;50.966;7.094;2022-12-29T04:02:20;0.35;;;0.35;;
11988;SDS011;6054;50.966;7.094;2022-12-29T04:04:47;1.05;;;0.22;;
11988;SDS011;6054;50.966;7.094;2022-12-29T04:07:15;0.30;;;0.30;;
11988;SDS011;6054;50.966;7.094;2022-12-29T04:09:42;1.20;;;0.30;;
11988;SDS011;6054;50.966;7.094;2022-12-29T04:12:08;0.82;;;0.30;;
11988;SDS011;6054;50.966;7.094;2022-12-29T04:14:35;2.58;;;0.38;;
11988;SDS011;6054;50.966;7.094;2022-12-29T04:17:02;0.50;;;0.50;;
11988;SDS011;6054;50.966;7.094;2022-12-29T04:19:28;0.50;;;0.50;;
11988;SDS011;6054;50.966;7.094;2022-12-29T04:21:55;2.00;;;0.57;;
11988;SDS011;6054;50.966;7.094;2022-12-29T04:24:23;0.30;;;0.30;;
11988;SDS011;6054;50.966;7.094;2022-12-29T04:26:50;0.38;;;0.38;;
11988;SDS011;6054;50.966;7.094;2022-12-29T04:29:17;1.60;;;0.30;;
11988;SDS011;6054;50.966;7.094;2022-12-29T04:31:44;1.55;;;0.55;;
11988;SDS011;6054;50.966;7.094;2022-12-29T04:34:10;0.30;;;0.30;;
11988;SDS011;6054;50.966;7.094;2022-12-29T04:36:37;0.35;;;0.30;;
11988;SDS011;6054;50.966;7.094;2022-12-29T04:39:04;0.30;;;0.30;;
11988;SDS011;6054;50.966;7.094;2022-12-29T04:41:33;0.40;;;0.30;;
11988;SDS011;6054;50.966;7.094;2022-12-29T04:44:00;0.50;;;0.40;;
11988;SDS011;6054;50.966;7.094;2022-12-29T04:46:26;0.47;;;0.40;;
11988;SDS011;6054;50.966;7.094;2022-12-29T04:48:53;0.20;;;0.20;;
11988;SDS011;6054;50.966;7.094;2022-12-29T04:51:20;0.88;;;0.20;;
11988;SDS011;6054;50.966;7.094;2022-12-29T04:53:47;0.30;;;0.30;;
11988;SDS011;6054;50.966;7.094;2022-12-29T04:56:14;0.20;;;0.20;;
11988;SDS011;6054;50.966;7.094;2022-12-29T04:58:42;0.40;;;0.40;;
11988;SDS011;6054;50.966;7.094;2022-12-29T05:01:08;0.25;;;0.13;;
11988;SDS011;6054;50.966;7.094;2022-12-29T05:03:35;1.67;;;0.30;;
11988;SDS011;6054;50.966;7.094;2022-12-29T05:06:02;0.38;;;0.32;;
11988;SDS011;6054;50.966;7.094;2022-12-29T05:08:29;0.30;;;0.30;;
11988;SDS011;6054;50.966;7.094;2022-12-29T05:10:56;1.40;;;0.30;;
11988;SDS011;6054;50.966;7.094;2022-12-29T05:13:22;2.42;;;0.50;;
11988;SDS011;6054;50.966;7.094;2022-12-29T05:15:51;0.73;;;0.57;;
11988;SDS011;6054;50.966;7.094;2022-12-29T05:18:18;0.98;;;0.43;;
11988;SDS011;6054;50.966;7.094;2022-12-29T05:20:45;0.25;;;0.25;;
11988;SDS011;6054;50.966;7.094;2022-12-29T05:23:13;0.40;;;0.40;;
11988;SDS011;6054;50.966;7.094;2022-12-29T05:25:40;0.75;;;0.30;;
11988;SDS011;6054;50.966;7.094;2022-12-29T05:28:07;0.63;;;0.40;;
11988;SDS011;6054;50.966;7.094;2022-12-29T05:30:34;1.50;;;0.70;;
11988;SDS011;6054;50.966;7.094;2022-12-29T05:33:02;0.40;;;0.40;;
11988;SDS011;6054;50.966;7.094;2022-12-29T05:35:31;2.95;;;0.50;;
11988;SDS011;6054;50.966;7.094;2022-12-29T05:37:58;0.30;;;0.30;;
11988;SDS011;6054;50.966;7.094;2022-12-29T05:40:25;0.22;;;0.22;;
11988;SDS011;6054;50.966;7.094;2022-12-29T05:42:51;1.38;;;0.20;;
11988;SDS011;6054;50.966;7.094;2022-12-29T05:45:18;1.48;;;0.40;;
11988;SDS011;6054;50.966;7.094;2022-12-29T05:47:45;0.57;;;0.30;;
11988;SDS011;6054;50.966;7.094;2022-12-29T05:50:13;0.95;;;0.35;;
11988;SDS011;6054;50.966;7.094;2022-12-29T05:52:40;0.30;;;0.20;;
11988;SDS011;6054;50.966;7.094;2022-12-29T05:55:06;0.28;;;0.28;;
11988;SDS011;6054;50.966;7.094;2022-12-29T05:57:33;0.20;;;0.20;;
11988;SDS011;6054;50.966;7.094;2022-12-29T06:00:00;0.20;;;0.20;;
11988;SDS011;6054;50.966;7.094;2022-12-29T06:02:27;1.38;;;0.20;;
11988;SDS011;6054;50.966;7.094;2022-12-29T06:04:54;1.08;;;0.38;;
11988;SDS011;6054;50.966;7.094;2022-12-29T06:07:22;0.25;;;0.20;;
11988;SDS011;6054;50.966;7.094;2022-12-29T06:09:49;0.30;;;0.30;;
11988;SDS011;6054;50.966;7.094;2022-12-29T06:12:15;0.28;;;0.28;;
11988;SDS011;6054;50.966;7.094;2022-12-29T06:14:42;0.20;;;0.20;;
11988;SDS011;6054;50.966;7.094;2022-12-29T06:17:09;0.32;;;0.28;;
11988;SDS011;6054;50.966;7.094;2022-12-29T06:19:36;0.45;;;0.20;;
11988;SDS011;6054;50.966;7.094;2022-12-29T06:22:02;0.47;;;0.17;;
11988;SDS011;6054;50.966;7.094;2022-12-29T06:24:31;0.57;;;0.20;;
11988;SDS011;6054;50.966;7.094;2022-12-29T06:26:57;0.28;;;0.20;;
11988;SDS011;6054;50.966;7.094;2022-12-29T06:29:24;0.30;;;0.20;;
11988;SDS011;6054;50.966;7.094;2022-12-29T06:31:51;0.35;;;0.30;;
11988;SDS011;6054;50.966;7.094;2022-12-29T06:34:21;0.25;;;0.25;;
11988;SDS011;6054;50.966;7.094;2022-12-29T06:36:47;0.22;;;0.20;;
11988;SDS011;6054;50.966;7.094;2022-12-29T06:39:14;0.25;;;0.10;;
11988;SDS011;6054;50.966;7.094;2022-12-29T06:41:42;0.63;;;0.30;;
11988;SDS011;6054;50.966;7.094;2022-12-29T06:44:09;0.30;;;0.30;;
11988;SDS011;6054;50.966;7.094;2022-12-29T06:46:36;0.57;;;0.30;;
11988;SDS011;6054;50.966;7.094;2022-12-29T06:49:02;0.25;;;0.25;;
11988;SDS011;6054;50.966;7.094;2022-12-29T06:51:29;0.68;;;0.50;;
11988;SDS011;6054;50.966;7.094;2022-12-29T06:53:56;0.63;;;0.40;;
11988;SDS011;6054;50.966;7.094;2022-12-29T06:56:22;0.30;;;0.20;;
11988;SDS011;6054;50.966;7.094;2022-12-29T06:58:50;0.30;;;0.30;;
11988;SDS011;6054;50.966;7.094;2022-12-29T07:01:17;0.13;;;0.13;;
11988;SDS011;6054;50.966;7.094;2022-12-29T07:03:44;0.28;;;0.28;;
11988;SDS011;6054;50.966;7.094;2022-12-29T07:06:11;0.75;;;0.30;;
11988;SDS011;6054;50.966;7.094;2022-12-29T07:08:38;0.68;;;0.28;;
11988;SDS011;6054;50.966;7.094;2022-12-29T07:11:05;0.73;;;0.35;;
11988;SDS011;6054;50.966;7.094;2022-12-29T07:13:31;0.20;;;0.20;;
11988;SDS011;6054;50.966;7.094;2022-12-29T07:16:04;0.35;;;0.20;;
11988;SDS011;6054;50.966;7.094;2022-12-29T07:18:31;1.08;;;0.13;;
11988;SDS011;6054;50.966;7.094;2022-12-29T07:20:58;1.92;;;0.30;;
11988;SDS011;6054;50.966;7.094;2022-12-29T07:23:25;0.85;;;0.30;;
11988;SDS011;6054;50.966;7.094;2022-12-29T07:25:58;0.45;;;0.30;;
11988;SDS011;6054;50.966;7.094;2022-12-29T07:28:25;0.73;;;0.28;;
11988;SDS011;6054;50.966;7.094;2022-12-29T07:30:52;0.22;;;0.10;;
11988;SDS011;6054;50.966;7.094;2022-12-29T07:33:20;0.82;;;0.40;;
11988;SDS011;6054;50.966;7.094;2022-12-29T07:35:47;2.08;;;0.20;;
11988;SDS011;6054;50.966;7.094;2022-12-29T07:38:14;1.35;;;0.40;;
11988;SDS011;6054;50.966;7.094;2022-12-29T07:40:41;0.60;;;0.15;;
11988;SDS011;6054;50.966;7.094;2022-12-29T07:43:08;0.30;;;0.22;;
11988;SDS011;6054;50.966;7.094;2022-12-29T07:45:34;0.52;;;0.30;;
11988;SDS011;6054;50.966;7.094;2022-12-29T07:48:01;0.70;;;0.43;;
11988;SDS011;6054;50.966;7.094;2022-12-29T07:50:29;0.57;;;0.40;;
11988;SDS011;6054;50.966;7.094;2022-12-29T07:52:56;0.55;;;0.17;;
11988;SDS011;6054;50.966;7.094;2022-12-29T07:55:23;0.85;;;0.32;;
11988;SDS011;6054;50.966;7.094;2022-12-29T07:57:49;0.75;;;0.50;;
11988;SDS011;6054;50.966;7.094;2022-12-29T08:00:19;0.90;;;0.50;;
11988;SDS011;6054;50.966;7.094;2022-12-29T08:02:45;1.42;;;0.40;;
11988;SDS011;6054;50.966;7.094;2022-12-29T08:05:12;0.75;;;0.50;;
11988;SDS011;6054;50.966;7.094;2022-12-29T08:07:41;0.20;;;0.13;;
11988;SDS011;6054;50.966;7.094;2022-12-29T08:10:08;2.08;;;0.50;;
11988;SDS011;6054;50.966;7.094;2022-12-29T08:12:36;1.55;;;0.65;;
11988;SDS011;6054;50.966;7.094;2022-12-29T08:15:04;1.42;;;0.50;;
11988;SDS011;6054;50.966;7.094;2022-12-29T08:17:32;0.50;;;0.47;;
11988;SDS011;6054;50.966;7.094;2022-12-29T08:19:59;2.03;;;0.70;;
11988;SDS011;6054;50.966;7.094;2022-12-29T08:22:26;1.88;;;0.60;;
11988;SDS011;6054;50.966;7.094;2022-12-29T08:24:54;2.63;;;0.77;;
11988;SDS011;6054;50.966;7.094;2022-12-29T08:27:20;2.40;;;0.77;;
11988;SDS011;6054;50.966;7.094;2022-12-29T08:29:47;2.10;;;0.77;;
11988;SDS011;6054;50.966;7.094;2022-12-29T08:32:14;2.25;;;0.73;;
11988;SDS011;6054;50.966;7.094;2022-12-29T08:34:41;3.05;;;0.73;;
11988;SDS011;6054;50.966;7.094;2022-12-29T08:37:08;4.97;;;1.13;;
11988;SDS011;6054;50.966;7.094;2022-12-29T08:39:35;8.68;;;0.80;;
11988;SDS011;6054;50.966;7.094;2022-12-29T08:42:03;2.75;;;0.80;;
11988;SDS011;6054;50.966;7.094;2022-12-29T08:44:30;3.20;;;0.82;;
11988;SDS011;6054;50.966;7.094;2022-12-29T08:46:56;4.15;;;0.98;;
11988;SDS011;6054;50.966;7.094;2022-12-29T08:49:23;2.92;;;0.85;;
11988;SDS011;6054;50.966;7.094;2022-12-29T08:51:50;5.22;;;1.67;;
11988;SDS011;6054;50.966;7.094;2022-12-29T08:54:17;4.30;;;1.17;;
11988;SDS011;6054;50.966;7.094;2022-12-29T08:56:44;2.25;;;0.60;;
11988;SDS011;6054;50.966;7.094;2022-12-29T08:59:12;2.67;;;1.10;;
11988;SDS011;6054;50.966;7.094;2022-12-29T09:01:39;5.88;;;0.90;;
11988;SDS011;6054;50.966;7.094;2022-12-29T09:04:06;2.28;;;0.88;;
11988;SDS011;6054;50.966;7.094;2022-12-29T09:06:33;2.25;;;0.68;;
11988;SDS011;6054;50.966;7.094;2022-12-29T09:09:01;2.72;;;0.70;;
11988;SDS011;6054;50.966;7.094;2022-12-29T09:11:28;2.88;;;1.10;;
11988;SDS011;6054;50.966;7.094;2022-12-29T09:13:54;1.10;;;0.57;;
11988;SDS011;6054;50.966;7.094;2022-12-29T09:16:23;2.15;;;1.05;;
11988;SDS011;6054;50.966;7.094;2022-12-29T09:18:51;6.95;;;1.00;;
11988;SDS011;6054;50.966;7.094;2022-12-29T09:21:18;4.60;;;1.00;;
11988;SDS011;6054;50.966;7.094;2022-12-29T09:23:45;3.40;;;0.90;;
11988;SDS011;6054;50.966;7.094;2022-12-29T09:26:12;4.00;;;0.98;;
11988;SDS011;6054;50.966;7.094;2022-12-29T09:28:38;1.60;;;0.60;;
11988;SDS011;6054;50.966;7.094;2022-12-29T09:31:05;2.72;;;0.85;;
11988;SDS011;6054;50.966;7.094;2022-12-29T09:33:34;3.47;;;0.65;;
11988;SDS011;6054;50.966;7.094;2022-12-29T09:36:01;2.05;;;1.00;;
11988;SDS011;6054;50.966;7.094;2022-12-29T09:38:28;1.95;;;0.70;;
11988;SDS011;6054;50.966;7.094;2022-12-29T09:40:56;2.88;;;0.90;;
11988;SDS011;6054;50.966;7.094;2022-12-29T09:43:33;2.95;;;0.80;;
11988;SDS011;6054;50.966;7.094;2022-12-29T09:46:18;3.47;;;0.80;;
11988;SDS011;6054;50.966;7.094;2022-12-29T09:48:53;3.42;;;0.77;;
11988;SDS011;6054;50.966;7.094;2022-12-29T09:51:29;3.25;;;1.15;;
11988;SDS011;6054;50.966;7.094;2022-12-29T09:53:58;2.38;;;1.08;;
11988;SDS011;6054;50.966;7.094;2022-12-29T09:56:29;3.03;;;1.17;;
11988;SDS011;6054;50.966;7.094;2022-12-29T09:58:57;3.38;;;0.90;;
11988;SDS011;6054;50.966;7.094;2022-12-29T10:01:29;3.92;;;1.20;;
11988;SDS011;6054;50.966;7.094;2022-12-29T10:04:00;4.40;;;1.02;;
11988;SDS011;6054;50.966;7.094;2022-12-29T10:06:31;2.75;;;0.88;;
11988;SDS011;6054;50.966;7.094;2022-12-29T10:09:07;2.60;;;0.90;;
11988;SDS011;6054;50.966;7.094;2022-12-29T10:14:32;2.35;;;0.77;;
11988;SDS011;6054;50.966;7.094;2022-12-29T10:17:10;5.78;;;1.05;;
11988;SDS011;6054;50.966;7.094;2022-12-29T10:19:51;6.40;;;1.02;;
11988;SDS011;6054;50.966;7.094;2022-12-29T10:22:34;5.72;;;2.08;;
11988;SDS011;6054;50.966;7.094;2022-12-29T10:25:14;2.95;;;0.77;;
11988;SDS011;6054;50.966;7.094;2022-12-29T10:27:44;4.22;;;1.10;;
11988;SDS011;6054;50.966;7.094;2022-12-29T10:30:14;4.03;;;1.30;;
11988;SDS011;6054;50.966;7.094;2022-12-29T10:32:42;1.98;;;0.93;;
11988;SDS011;6054;50.966;7.094;2022-12-29T10:35:16;4.57;;;1.33;;
11988;SDS011;6054;50.966;7.094;2022-12-29T10:37:47;2.88;;;1.00;;
11988;SDS011;6054;50.966;7.094;2022-12-29T10:40:18;6.18;;;1.23;;
11988;SDS011;6054;50.966;7.094;2022-12-29T10:42:50;3.33;;;1.00;;
11988;SDS011;6054;50.966;7.094;2022-12-29T10:45:19;4.68;;;1.30;;
11988;SDS011;6054;50.966;7.094;2022-12-29T10:47:51;5.70;;;0.85;;
11988;SDS011;6054;50.966;7.094;2022-12-29T10:50:23;2.70;;;1.05;;
11988;SDS011;6054;50.966;7.094;2022-12-29T10:52:51;4.53;;;1.25;;
11988;SDS011;6054;50.966;7.094;2022-12-29T10:55:19;7.22;;;1.23;;
11988;SDS011;6054;50.966;7.094;2022-12-29T10:57:48;3.92;;;0.98;;
11988;SDS011;6054;50.966;7.094;2022-12-29T11:00:16;5.55;;;1.60;;
11988;SDS011;6054;50.966;7.094;2022-12-29T11:02:53;4.80;;;1.17;;
11988;SDS011;6054;50.966;7.094;2022-12-29T11:05:40;4.75;;;1.05;;
11988;SDS011;6054;50.966;7.094;2022-12-29T11:08:12;3.53;;;0.82;;
11988;SDS011;6054;50.966;7.094;2022-12-29T11:10:44;3.28;;;0.88;;
11988;SDS011;6054;50.966;7.094;2022-12-29T11:13:13;3.80;;;1.20;;
11988;SDS011;6054;50.966;7.094;2022-12-29T11:15:42;3.22;;;1.10;;
11988;SDS011;6054;50.966;7.094;2022-12-29T11:18:19;5.40;;;0.93;;
11988;SDS011;6054;50.966;7.094;2022-12-29T11:20:50;3.50;;;1.33;;
11988;SDS011;6054;50.966;7.094;2022-12-29T11:23:22;5.88;;;1.30;;
11988;SDS011;6054;50.966;7.094;2022-12-29T11:26:05;4.65;;;1.17;;
11988;SDS011;6054;50.966;7.094;2022-12-29T11:28:33;5.00;;;1.20;;
11988;SDS011;6054;50.966;7.094;2022-12-29T11:31:00;4.30;;;0.80;;
11988;SDS011;6054;50.966;7.094;2022-12-29T11:33:29;2.08;;;0.90;;
11988;SDS011;6054;50.966;7.094;2022-12-29T11:35:58;5.03;;;0.82;;
11988;SDS011;6054;50.966;7.094;2022-12-29T11:38:30;3.88;;;1.30;;
11988;SDS011;6054;50.966;7.094;2022-12-29T11:41:00;2.40;;;1.00;;
11988;SDS011;6054;50.966;7.094;2022-12-29T11:43:30;2.47;;;0.88;;
11988;SDS011;6054;50.966;7.094;2022-12-29T11:45:58;3.80;;;1.20;;
11988;SDS011;6054;50.966;7.094;2022-12-29T11:48:29;4.07;;;0.85;;
11988;SDS011;6054;50.966;7.094;2022-12-29T11:51:01;3.33;;;0.95;;
11988;SDS011;6054;50.966;7.094;2022-12-29T11:53:28;3.42;;;1.00;;
11988;SDS011;6054;50.966;7.094;2022-12-29T11:56:02;2.50;;;1.08;;
11988;SDS011;6054;50.966;7.094;2022-12-29T11:58:32;5.50;;;1.40;;
11988;SDS011;6054;50.966;7.094;2022-12-29T12:01:01;3.83;;;1.45;;
11988;SDS011;6054;50.966;7.094;2022-12-29T12:03:31;2.50;;;1.02;;
11988;SDS011;6054;50.966;7.094;2022-12-29T12:06:05;4.10;;;1.10;;
11988;SDS011;6054;50.966;7.094;2022-12-29T12:08:37;2.67;;;0.90;;
11988;SDS011;6054;50.966;7.094;2022-12-29T12:11:09;2.85;;;0.90;;
11988;SDS011;6054;50.966;7.094;2022-12-29T12:13:40;2.65;;;0.95;;
11988;SDS011;6054;50.966;7.094;2022-12-29T12:16:14;2.97;;;0.98;;
11988;SDS011;6054;50.966;7.094;2022-12-29T12:18:45;2.65;;;0.88;;
11988;SDS011;6054;50.966;7.094;2022-12-29T12:21:23;3.25;;;1.45;;
11988;SDS011;6054;50.966;7.094;2022-12-29T12:23:59;2.80;;;1.10;;
11988;SDS011;6054;50.966;7.094;2022-12-29T12:26:55;3.38;;;1.27;;
11988;SDS011;6054;50.966;7.094;2022-12-29T12:29:27;5.65;;;1.40;;
11988;SDS011;6054;50.966;7.094;2022-12-29T12:32:01;5.57;;;1.77;;
11988;SDS011;6054;50.966;7.094;2022-12-29T12:34:36;2.42;;;0.90;;
11988;SDS011;6054;50.966;7.094;2022-12-29T12:37:17;4.43;;;1.08;;
11988;SDS011;6054;50.966;7.094;2022-12-29T12:40:06;3.95;;;1.38;;
11988;SDS011;6054;50.966;7.094;2022-12-29T12:42:52;2.90;;;0.80;;
11988;SDS011;6054;50.966;7.094;2022-12-29T12:45:30;3.08;;;0.77;;
11988;SDS011;6054;50.966;7.094;2022-12-29T12:48:13;3.58;;;1.30;;
11988;SDS011;6054;50.966;7.094;2022-12-29T12:51:11;5.15;;;1.23;;
11988;SDS011;6054;50.966;7.094;2022-12-29T12:53:54;4.03;;;1.35;;
11988;SDS011;6054;50.966;7.094;2022-12-29T12:56:44;4.82;;;1.20;;
11988;SDS011;6054;50.966;7.094;2022-12-29T12:59:19;4.68;;;1.02;;
11988;SDS011;6054;50.966;7.094;2022-12-29T13:01:58;3.50;;;0.90;;
11988;SDS011;6054;50.966;7.094;2022-12-29T13:04:37;5.28;;;1.20;;
11988;SDS011;6054;50.966;7.094;2022-12-29T13:07:19;4.60;;;1.10;;
11988;SDS011;6054;50.966;7.094;2022-12-29T13:12:55;4.97;;;1.00;;
11988;SDS011;6054;50.966;7.094;2022-12-29T13:15:35;4.05;;;1.15;;
11988;SDS011;6054;50.966;7.094;2022-12-29T13:18:11;3.33;;;1.40;;
11988;SDS011;6054;50.966;7.094;2022-12-29T13:20:49;4.25;;;0.88;;
11988;SDS011;6054;50.966;7.094;2022-12-29T13:23:25;4.03;;;0.95;;
11988;SDS011;6054;50.966;7.094;2022-12-29T13:26:01;3.67;;;1.08;;
11988;SDS011;6054;50.966;7.094;2022-12-29T13:28:35;4.13;;;1.20;;
11988;SDS011;6054;50.966;7.094;2022-12-29T13:31:08;6.28;;;1.35;;
11988;SDS011;6054;50.966;7.094;2022-12-29T13:33:42;2.78;;;0.90;;
11988;SDS011;6054;50.966;7.094;2022-12-29T13:36:19;4.03;;;1.40;;
11988;SDS011;6054;50.966;7.094;2022-12-29T13:38:51;6.25;;;1.27;;
11988;SDS011;6054;50.966;7.094;2022-12-29T13:41:25;6.07;;;1.20;;
11988;SDS011;6054;50.966;7.094;2022-12-29T13:43:56;4.63;;;1.40;;
11988;SDS011;6054;50.966;7.094;2022-12-29T13:46:24;2.58;;;1.00;;
11988;SDS011;6054;50.966;7.094;2022-12-29T13:48:56;3.10;;;1.00;;
11988;SDS011;6054;50.966;7.094;2022-12-29T13:51:27;2.28;;;0.75;;
11988;SDS011;6054;50.966;7.094;2022-12-29T13:53:57;3.35;;;0.95;;
11988;SDS011;6054;50.966;7.094;2022-12-29T13:56:34;4.25;;;1.00;;
11988;SDS011;6054;50.966;7.094;2022-12-29T13:59:05;3.63;;;1.10;;
11988;SDS011;6054;50.966;7.094;2022-12-29T14:01:41;2.40;;;1.10;;
11988;SDS011;6054;50.966;7.094;2022-12-29T14:04:20;4.30;;;1.25;;
11988;SDS011;6054;50.966;7.094;2022-12-29T14:06:57;3.55;;;1.17;;
11988;SDS011;6054;50.966;7.094;2022-12-29T14:09:33;3.47;;;1.10;;
11988;SDS011;6054;50.966;7.094;2022-12-29T14:12:20;3.60;;;1.30;;
11988;SDS011;6054;50.966;7.094;2022-12-29T14:14:54;5.50;;;1.00;;
11988;SDS011;6054;50.966;7.094;2022-12-29T14:17:29;3.83;;;1.13;;
11988;SDS011;6054;50.966;7.094;2022-12-29T14:19:56;2.88;;;1.05;;
11988;SDS011;6054;50.966;7.094;2022-12-29T14:22:23;3.30;;;1.25;;
11988;SDS011;6054;50.966;7.094;2022-12-29T14:24:50;7.43;;;4.22;;
11988;SDS011;6054;50.966;7.094;2022-12-29T14:33:25;4.78;;;1.70;;
11988;SDS011;6054;50.966;7.094;2022-12-29T14:35:53;2.35;;;0.90;;
11988;SDS011;6054;50.966;7.094;2022-12-29T14:38:25;6.95;;;3.67;;
11988;SDS011;6054;50.966;7.094;2022-12-29T14:43:52;4.68;;;1.75;;
11988;SDS011;6054;50.966;7.094;2022-12-29T14:46:22;10.13;;;5.20;;
11988;SDS011;6054;50.966;7.094;2022-12-29T14:48:52;6.88;;;3.22;;
11988;SDS011;6054;50.966;7.094;2022-12-29T14:51:30;5.15;;;2.35;;
11988;SDS011;6054;50.966;7.094;2022-12-29T14:54:01;4.25;;;2.30;;
11988;SDS011;6054;50.966;7.094;2022-12-29T14:57:24;4.10;;;1.20;;
11988;SDS011;6054;50.966;7.094;2022-12-29T14:59:55;3.85;;;0.95;;
11988;SDS011;6054;50.966;7.094;2022-12-29T15:02:34;4.93;;;1.55;;
11988;SDS011;6054;50.966;7.094;2022-12-29T15:05:10;3.83;;;0.90;;
11988;SDS011;6054;50.966;7.094;2022-12-29T15:07:51;4.13;;;1.60;;
11988;SDS011;6054;50.966;7.094;2022-12-29T15:10:19;5.25;;;1.60;;
11988;SDS011;6054;50.966;7.094;2022-12-29T15:12:51;4.07;;;1.30;;
11988;SDS011;6054;50.966;7.094;2022-12-29T15:15:20;6.50;;;1.70;;
11988;SDS011;6054;50.966;7.094;2022-12-29T15:17:48;3.80;;;1.20;;
11988;SDS011;6054;50.966;7.094;2022-12-29T15:20:26;8.43;;;3.50;;
11988;SDS011;6054;50.966;7.094;2022-12-29T15:22:54;5.65;;;2.13;;
11988;SDS011;6054;50.966;7.094;2022-12-29T15:25:23;4.57;;;2.08;;
11988;SDS011;6054;50.966;7.094;2022-12-29T15:27:52;5.63;;;3.08;;
11988;SDS011;6054;50.966;7.094;2022-12-29T15:30:22;9.30;;;3.20;;
11988;SDS011;6054;50.966;7.094;2022-12-29T15:32:49;6.93;;;1.48;;
11988;SDS011;6054;50.966;7.094;2022-12-29T15:35:30;3.47;;;1.00;;
11988;SDS011;6054;50.966;7.094;2022-12-29T15:37:59;4.93;;;1.58;;
11988;SDS011;6054;50.966;7.094;2022-12-29T15:40:28;8.25;;;1.92;;
11988;SDS011;6054;50.966;7.094;2022-12-29T15:43:01;4.47;;;1.95;;
11988;SDS011;6054;50.966;7.094;2022-12-29T15:45:50;8.77;;;3.30;;